METAR Data
IDs: Format: Raw Decoded Include TAF

Data at: 1905 UTC 31 Jul 2021

EPSY 311900Z 24004KT CAVOK 20/10 Q1006